Startpagina
METAR-TAF:

METAR-TAF

Vliegvelden :

Tébessa, Algerije

breedte: 35-29N, lengte: 008-08E, hoogte: 813 m

Actueel weer

Dit bericht is 56 minuten geleden gemaakt, om 22:00 UTC
Wind 9 kt uit het oosten
Temperatuur 24°C
Vochtigheid 31%
Druk 1020 hPa
Zicht 10 km of meer
Weinig wolken op 3300 ft

METAR: DABS 192200Z 10009KT 9999 FEW033 24/06 Q1020

Tijdstip: 23:56 (22:56 UTC)

Verwachting

Dit bericht is 5 uur en het 56 minuten geleden gemaakt, om 17:00 UTC
Verwachting geldig van 19 om 18 UTC tot 20 om 18 UTC
Wind 12 kt uit het noorden
Zicht 10 km of meer
Weinig wolken op 4000 ft
Kans 30% :
Tijdelijke
van 19 om 18 UTC tot 19 om 22 UTC
Weinig wolken op 2300 ft, Stapelwolken.
Wijzigt naar
van 19 om 22 UTC tot 19 om 24 UTC
Wind 8 kt uit het zuiden
Wijzigt naar
van 20 om 09 UTC tot 20 om 11 UTC
Wind 12 kt uit het noordwesten

TAF: DABS 191700Z 1918/2018 35012KT 9999 FEW040 PROB30 TEMPO 1918/1922 FEW023TCU BECMG 1922/1924 19008KT BECMG 2009/2011 32012KT

Waarnemingen en weersverwachtingen van meer dan 4000 vliegvelden (METAR en TAF).

De beschikbare stations zijn de gele en rode punten op de kaart.

Ga met uw muis naar het station om de naam te zien.

Klik dan om waarnemingen en weersverwachtingen te zien.

kaart wijzigen: klik op de groene knoppen met een zwart kruis om in te zoomen, op de groene knop met een streepje om uit te zoomen of op de groene pijlen voor aangrenzende kaarten.


METAR-TAF: